Time;durP1;ratioP1;P1;durP2;ratioP2;P2;SDS_P1;SDS_P2;PMS_P1;PMS_P2;Temp;Humidity;BMP_temperature;BMP_pressure;BME280_temperature;BME280_humidity;BME280_pressure;Samples;Min_cycle;Max_cycle;Signal;HPM_P1;HPM_P2
2024/04/11 00:00:29;;;;;;;;;;;;;;;13.59;98.48;98958.17;104150;1280;71439;-44
2024/04/11 00:02:57;;;;;;;;;;;;;;;13.57;98.36;98957.71;104185;1278;62134;-43
2024/04/11 00:05:25;;;;;;;;;;;;;;;13.55;98.30;98962.73;104417;1280;62190;-44
2024/04/11 00:07:53;;;;;;;;;;;;;;;13.53;98.28;98959.33;104174;1274;73064;-42
2024/04/11 00:10:20;;;;;;;;;;;;;;;13.52;98.23;98961.36;104161;1280;66277;-41
2024/04/11 00:12:47;;;;;;;;;;;;;;;13.51;97.94;98962.73;104160;1280;72512;-43
2024/04/11 00:15:15;;;;;;;;;;;;;;;13.48;97.69;98959.16;104168;1287;62038;-42
2024/04/11 00:17:44;;;;;;;;;;;;;;;13.45;97.50;98959.88;103980;1277;62200;-40
2024/04/11 00:20:11;;;;;;;;;;;;;;;13.43;97.15;98966.36;103992;1283;75395;-43
2024/04/11 00:22:38;;;;;;;;;;;;;;;13.41;96.90;98966.60;104063;1280;65409;-39
2024/04/11 00:25:05;;;;;;;;;;;;;;;13.39;96.72;98967.87;103974;1278;72594;-36
2024/04/11 00:27:33;;;;;;;;;;;;;;;13.38;96.56;98971.53;104096;1279;62197;-38
2024/04/11 00:30:02;;;;;;;;;;;;;;;13.37;96.42;98970.95;104153;1277;62190;-38
2024/04/11 00:32:30;;;;;;;;;;;;;;;13.36;96.03;98973.33;103998;1276;75425;-39
2024/04/11 00:34:57;;;;;;;;;;;;;;;13.31;95.82;98979.56;103972;1279;66043;-42
2024/04/11 00:37:25;;;;;;;;;;;;;;;13.27;95.68;98981.77;104072;1279;72418;-39
2024/04/11 00:39:52;;;;;;;;;;;;;;;13.24;95.50;98984.52;104552;1280;62565;-39
2024/04/11 00:42:19;;;;;;;;;;;;;;;13.20;95.52;98987.52;104207;1280;62114;-40
2024/04/11 00:44:48;;;;;;;;;;;;;;;13.19;95.56;98994.36;104819;1279;75114;-40
2024/04/11 00:47:16;;;;;;;;;;;;;;;13.19;95.57;98996.73;104248;1280;65196;-39
2024/04/11 00:49:46;;;;;;;;;;;;;;;13.19;95.44;98999.26;104718;1277;73698;-40
2024/04/11 00:52:13;;;;;;;;;;;;;;;13.18;95.33;99003.73;104073;1278;62667;-38
2024/04/11 00:54:40;;;;;;;;;;;;;;;13.18;95.29;99009.81;103884;1274;62302;-40
2024/04/11 00:57:08;;;;;;;;;;;;;;;13.19;95.12;99012.92;104159;1279;75194;-38
2024/04/11 00:59:38;;;;;;;;;;;;;;;13.19;95.06;99017.02;104225;1280;65971;-39
2024/04/11 01:02:07;;;;;;;;;;;;;;;13.18;94.88;99017.02;104038;1279;72636;-39
2024/04/11 01:04:35;;;;;;;;;;;;;;;13.16;94.69;99018.22;104335;1279;62155;-39
2024/04/11 01:07:10;;;;;;;;;;;;;;;13.16;94.46;99020.64;104256;1280;62114;-38
2024/04/11 01:09:44;;;;;;;;;;;;;;;13.15;94.59;99020.39;104176;1282;75167;-40
2024/04/11 01:12:16;;;;;;;;;;;;;;;13.15;94.39;99023.88;104187;1278;65494;-38
2024/04/11 01:14:46;;;;;;;;;;;;;;;13.15;94.42;99024.41;104089;1278;72461;-40
2024/04/11 01:17:17;;;;;;;;;;;;;;;13.17;94.39;99026.66;104194;1280;62105;-39
2024/04/11 01:19:48;;;;;;;;;;;;;;;13.17;94.20;99031.13;104778;1274;62276;-39
2024/04/11 01:22:18;;;;;;;;;;;;;;;13.17;93.89;99034.73;103888;1274;75272;-39
2024/04/11 01:24:47;;;;;;;;;;;;;;;13.15;93.89;99033.09;104453;1279;66179;-40
2024/04/11 01:27:16;;;;;;;;;;;;;;;13.13;93.80;99035.79;104099;1277;72660;-40
2024/04/11 01:29:43;;;;;;;;;;;;;;;13.12;93.77;99037.58;104084;1287;62111;-40
2024/04/11 01:32:11;;;;;;;;;;;;;;;13.10;93.74;99035.11;104213;1280;62107;-40
2024/04/11 01:34:39;;;;;;;;;;;;;;;13.08;93.71;99039.76;103933;1280;75296;-40
2024/04/11 01:37:07;;;;;;;;;;;;;;;13.07;93.62;99039.55;103930;1277;66308;-39
2024/04/11 01:39:37;;;;;;;;;;;;;;;13.06;93.44;99035.89;103877;1273;71320;-40
2024/04/11 01:42:04;;;;;;;;;;;;;;;13.05;93.33;99037.55;104095;1273;62081;-39
2024/04/11 01:44:31;;;;;;;;;;;;;;;13.03;93.25;99041.00;103941;1277;62177;-39
2024/04/11 01:46:59;;;;;;;;;;;;;;;13.01;93.15;99042.63;104211;1279;75165;-41
2024/04/11 01:49:26;;;;;;;;;;;;;;;13.00;93.12;99047.00;104224;1281;66417;-41
2024/04/11 01:51:53;;;;;;;;;;;;;;;12.99;92.99;99047.71;103863;1274;72516;-40
2024/04/11 01:54:21;;;;;;;;;;;;;;;13.00;93.13;99051.25;104166;1279;62018;-40
2024/04/11 01:56:49;;;;;;;;;;;;;;;13.01;92.94;99058.55;104015;1274;62180;-39
2024/04/11 01:59:16;;;;;;;;;;;;;;;13.02;92.68;99057.53;104278;1278;75460;-40
2024/04/11 02:01:43;;;;;;;;;;;;;;;13.00;92.56;99057.87;104189;1277;65160;-40
2024/04/11 02:04:10;;;;;;;;;;;;;;;12.98;92.26;99058.58;103865;1278;72406;-40
2024/04/11 02:06:39;;;;;;;;;;;;;;;12.95;92.12;99059.40;104117;1287;62069;-39
2024/04/11 02:09:09;;;;;;;;;;;;;;;12.93;92.08;99062.98;103918;1279;62033;-40
2024/04/11 02:11:38;;;;;;;;;;;;;;;12.92;91.90;99065.02;104082;1274;76473;-40
2024/04/11 02:14:07;;;;;;;;;;;;;;;12.93;91.72;99064.70;104074;1274;64861;-41
2024/04/11 02:16:36;;;;;;;;;;;;;;;12.93;91.45;99065.65;104086;1273;72365;-40
2024/04/11 02:19:06;;;;;;;;;;;;;;;12.95;91.22;99070.20;103980;1280;62200;-40
2024/04/11 02:21:34;;;;;;;;;;;;;;;12.95;90.94;99068.06;104058;1279;62181;-39
2024/04/11 02:24:01;;;;;;;;;;;;;;;12.96;90.50;99070.80;104189;1278;75429;-39
2024/04/11 02:26:29;;;;;;;;;;;;;;;12.95;90.11;99072.46;104179;1279;63990;-42
2024/04/11 02:28:56;;;;;;;;;;;;;;;12.94;89.87;99068.59;103955;1277;72665;-43
2024/04/11 02:31:23;;;;;;;;;;;;;;;12.92;89.42;99074.10;104161;1280;62097;-42
2024/04/11 02:33:50;;;;;;;;;;;;;;;12.90;89.04;99073.64;104063;1275;62120;-40
2024/04/11 02:36:18;;;;;;;;;;;;;;;12.88;88.85;99072.52;103994;1276;75461;-43
2024/04/11 02:38:46;;;;;;;;;;;;;;;12.87;88.62;99073.38;104316;1286;66325;-43
2024/04/11 02:41:13;;;;;;;;;;;;;;;12.86;88.38;99075.00;104356;1274;72704;-41
2024/04/11 02:43:40;;;;;;;;;;;;;;;12.84;87.99;99072.33;103987;1282;62221;-40
2024/04/11 02:46:15;;;;;;;;;;;;;;;12.83;87.97;99076.69;104142;1277;62117;-39
2024/04/11 02:48:42;;;;;;;;;;;;;;;12.83;87.56;99079.98;103889;1274;73995;-40
2024/04/11 02:51:13;;;;;;;;;;;;;;;12.83;87.15;99087.13;103871;1274;66320;-40
2024/04/11 02:53:41;;;;;;;;;;;;;;;12.83;86.79;99090.08;103894;1278;73272;-39
2024/04/11 02:56:08;;;;;;;;;;;;;;;12.83;86.60;99095.23;103888;1273;62104;-40
2024/04/11 02:58:38;;;;;;;;;;;;;;;12.83;86.27;99093.25;103908;1278;62178;-41
2024/04/11 03:01:09;;;;;;;;;;;;;;;12.84;86.31;99095.93;103984;1278;76462;-40
2024/04/11 03:03:37;;;;;;;;;;;;;;;12.85;85.52;99095.39;104172;1273;66348;-40
2024/04/11 03:06:18;;;;;;;;;;;;;;;12.85;85.44;99099.70;104082;1277;72639;-41
2024/04/11 03:08:46;;;;;;;;;;;;;;;12.86;85.20;99101.93;104093;1279;62136;-41
2024/04/11 03:11:13;;;;;;;;;;;;;;;12.88;84.50;99102.90;103891;1279;62095;-40
2024/04/11 03:13:41;;;;;;;;;;;;;;;12.89;83.77;99104.50;104154;1276;75438;-40
2024/04/11 03:16:11;;;;;;;;;;;;;;;12.90;82.73;99105.73;104001;1278;66243;-40
2024/04/11 03:18:41;;;;;;;;;;;;;;;12.91;81.64;99110.25;103886;1274;71768;-40
2024/04/11 03:21:09;;;;;;;;;;;;;;;12.91;80.50;99111.70;104085;1278;62113;-40
2024/04/11 03:23:36;;;;;;;;;;;;;;;12.90;79.24;99115.90;104157;1274;62117;-40
2024/04/11 03:26:04;;;;;;;;;;;;;;;12.90;77.75;99122.25;103970;1279;75409;-40
2024/04/11 03:28:31;;;;;;;;;;;;;;;12.89;76.46;99126.17;103969;1278;66553;-41
2024/04/11 03:31:04;;;;;;;;;;;;;;;12.89;75.49;99122.68;104173;1277;72438;-40
2024/04/11 03:33:32;;;;;;;;;;;;;;;12.87;75.01;99121.09;104290;1279;62229;-40
2024/04/11 03:36:00;;;;;;;;;;;;;;;12.88;74.57;99124.51;104293;1274;62703;-38
2024/04/11 03:38:31;;;;;;;;;;;;;;;12.90;73.86;99124.45;103945;1276;74354;-40
2024/04/11 03:40:58;;;;;;;;;;;;;;;12.91;73.51;99127.02;103886;1277;66286;-39
2024/04/11 03:43:28;;;;;;;;;;;;;;;12.92;73.17;99130.46;103916;1274;72609;-40
2024/04/11 03:46:07;;;;;;;;;;;;;;;12.91;72.78;99130.57;103999;1279;62089;-40
2024/04/11 03:48:34;;;;;;;;;;;;;;;12.91;72.27;99132.30;103919;1276;62117;-39
2024/04/11 03:51:20;;;;;;;;;;;;;;;12.90;71.97;99130.27;103859;1279;75574;-41
2024/04/11 03:53:51;;;;;;;;;;;;;;;12.90;71.55;99132.41;104136;1273;64129;-41
2024/04/11 03:56:22;;;;;;;;;;;;;;;12.90;71.11;99138.06;104079;1274;71324;-40
2024/04/11 03:58:50;;;;;;;;;;;;;;;12.89;71.15;99143.81;104008;1273;62200;-40
2024/04/11 04:01:18;;;;;;;;;;;;;;;12.88;71.01;99145.77;103878;1274;62189;-40
2024/04/11 04:03:46;;;;;;;;;;;;;;;12.89;71.25;99142.09;103998;1279;75248;-41
2024/04/11 04:06:13;;;;;;;;;;;;;;;12.92;71.09;99146.11;104018;1274;66322;-39
2024/04/11 04:08:47;;;;;;;;;;;;;;;12.94;70.54;99146.05;103916;1274;72921;-39
2024/04/11 04:11:18;;;;;;;;;;;;;;;12.95;70.45;99147.77;103851;1287;62117;-39
2024/04/11 04:13:45;;;;;;;;;;;;;;;12.96;70.10;99149.27;103939;1276;62202;-39
2024/04/11 04:16:14;;;;;;;;;;;;;;;12.95;70.20;99150.03;104006;1279;75368;-41
2024/04/11 04:18:42;;;;;;;;;;;;;;;12.96;70.35;99152.39;103939;1279;65372;-39
2024/04/11 04:21:09;;;;;;;;;;;;;;;12.96;70.49;99157.60;103981;1277;71478;-41
2024/04/11 04:23:36;;;;;;;;;;;;;;;12.95;70.57;99162.60;104203;1279;62092;-39
2024/04/11 04:26:05;;;;;;;;;;;;;;;12.95;71.01;99167.19;104342;1275;62226;-40
2024/04/11 04:28:32;;;;;;;;;;;;;;;12.95;71.41;99169.61;104175;1276;75806;-40
2024/04/11 04:31:16;;;;;;;;;;;;;;;12.95;71.70;99176.86;103910;1273;65788;-40
2024/04/11 04:33:47;;;;;;;;;;;;;;;12.96;71.89;99175.52;103913;1273;72775;-40
2024/04/11 04:36:16;;;;;;;;;;;;;;;12.94;71.67;99175.90;103832;1274;62676;-40
2024/04/11 04:38:46;;;;;;;;;;;;;;;12.91;71.87;99179.90;103880;1273;62187;-40
2024/04/11 04:41:13;;;;;;;;;;;;;;;12.90;72.10;99189.10;103882;1274;75433;-40
2024/04/11 04:43:44;;;;;;;;;;;;;;;12.92;72.26;99193.61;104039;1274;65964;-40
2024/04/11 04:46:13;;;;;;;;;;;;;;;12.93;72.06;99198.98;103933;1274;72677;-41
2024/04/11 04:48:40;;;;;;;;;;;;;;;12.95;72.21;99203.48;104304;1279;62131;-40
2024/04/11 04:51:11;;;;;;;;;;;;;;;12.97;72.40;99207.13;103884;1274;62098;-40
2024/04/11 04:53:39;;;;;;;;;;;;;;;13.02;72.20;99206.84;104016;1279;75439;-41
2024/04/11 04:56:07;;;;;;;;;;;;;;;13.07;72.24;99207.60;104322;1273;64573;-41
2024/04/11 04:58:41;;;;;;;;;;;;;;;13.10;72.10;99209.46;103883;1276;72394;-40
2024/04/11 05:01:08;;;;;;;;;;;;;;;13.11;71.96;99209.14;104117;1278;62129;-38
2024/04/11 05:03:35;;;;;;;;;;;;;;;13.12;71.81;99215.70;104426;1273;62111;-40
2024/04/11 05:06:03;;;;;;;;;;;;;;;13.09;72.20;99211.41;104022;1278;76303;-39
2024/04/11 05:08:33;;;;;;;;;;;;;;;13.10;72.52;99218.81;104467;1274;65986;-39
2024/04/11 05:11:10;;;;;;;;;;;;;;;13.12;72.81;99216.77;105457;1269;72981;-37
2024/04/11 05:13:38;;;;;;;;;;;;;;;13.16;73.02;99219.22;107779;1273;59753;-39
2024/04/11 05:16:06;;;;;;;;;;;;;;;13.20;73.13;99221.04;104418;1276;62062;-39
2024/04/11 05:18:37;;;;;;;;;;;;;;;13.26;73.22;99224.66;107828;1273;75313;-40
2024/04/11 05:21:04;;;;;;;;;;;;;;;13.33;72.95;99223.92;107810;1273;66069;-40
2024/04/11 05:23:34;;;;;;;;;;;;;;;13.41;72.77;99223.33;107498;1273;72659;-40
2024/04/11 05:26:07;;;;;;;;;;;;;;;13.49;72.31;99222.15;103891;1274;62109;-40
2024/04/11 05:28:35;;;;;;;;;;;;;;;13.59;71.88;99223.52;103912;1276;62004;-39
2024/04/11 05:31:06;;;;;;;;;;;;;;;13.68;71.45;99221.43;105686;1275;74593;-39
2024/04/11 05:33:35;;;;;;;;;;;;;;;13.73;70.26;99225.48;103988;1274;65970;-40
2024/04/11 05:36:06;;;;;;;;;;;;;;;13.71;69.67;99230.83;103851;1274;71887;-40
2024/04/11 05:38:37;;;;;;;;;;;;;;;13.71;69.78;99223.03;104093;1279;62224;-39
2024/04/11 05:41:05;;;;;;;;;;;;;;;13.71;69.83;99231.30;103985;1276;62129;-38
2024/04/11 05:43:32;;;;;;;;;;;;;;;13.76;69.71;99234.13;104055;1276;75220;-39
2024/04/11 05:46:04;;;;;;;;;;;;;;;13.80;69.14;99233.09;103965;1273;66175;-39
2024/04/11 05:48:32;;;;;;;;;;;;;;;13.81;68.52;99232.58;104029;1273;72205;-39
2024/04/11 05:50:59;;;;;;;;;;;;;;;13.79;68.32;99234.23;103995;1277;62076;-39
2024/04/11 05:53:26;;;;;;;;;;;;;;;13.78;68.87;99236.44;103861;1273;62190;-40
2024/04/11 05:55:56;;;;;;;;;;;;;;;13.79;68.87;99238.95;103874;1279;75253;-39
2024/04/11 05:58:24;;;;;;;;;;;;;;;13.78;69.35;99242.04;104650;1276;67093;-37
2024/04/11 06:00:51;;;;;;;;;;;;;;;13.76;69.32;99244.95;103961;1279;71826;-41
2024/04/11 06:03:18;;;;;;;;;;;;;;;13.74;69.54;99250.08;105405;1273;62296;-40
2024/04/11 06:05:53;;;;;;;;;;;;;;;13.74;69.88;99252.77;104104;1274;62078;-38
2024/04/11 06:08:23;;;;;;;;;;;;;;;13.75;70.26;99256.76;106468;1273;75482;-36
2024/04/11 06:10:51;;;;;;;;;;;;;;;13.75;70.32;99259.38;103976;1276;65210;-34
2024/04/11 06:13:18;;;;;;;;;;;;;;;13.73;70.25;99263.61;103925;1274;72837;-37
2024/04/11 06:15:47;;;;;;;;;;;;;;;13.72;70.80;99260.97;103917;1276;62002;-38
2024/04/11 06:18:15;;;;;;;;;;;;;;;13.76;70.78;99259.81;103880;1274;62079;-39
2024/04/11 06:20:43;;;;;;;;;;;;;;;13.78;70.46;99261.42;103866;1274;75402;-38
2024/04/11 06:23:15;;;;;;;;;;;;;;;13.81;70.71;99262.64;104024;1276;66433;-36
2024/04/11 06:25:44;;;;;;;;;;;;;;;13.85;70.83;99265.67;103980;1273;73692;-39
2024/04/11 06:28:14;;;;;;;;;;;;;;;13.85;70.60;99265.95;103937;1276;62027;-40
2024/04/11 06:30:41;;;;;;;;;;;;;;;13.84;71.03;99268.48;104050;1274;62671;-38
2024/04/11 06:33:08;;;;;;;;;;;;;;;13.85;70.70;99267.78;103856;1278;75360;-39
2024/04/11 06:35:39;;;;;;;;;;;;;;;13.84;70.32;99265.59;103818;1276;65113;-40
2024/04/11 06:38:09;;;;;;;;;;;;;;;13.80;70.43;99267.17;104296;1273;73199;-41
2024/04/11 06:40:38;;;;;;;;;;;;;;;13.77;70.62;99268.85;104092;1276;62098;-36
2024/04/11 06:43:08;;;;;;;;;;;;;;;13.79;70.65;99276.28;105171;1272;62187;-38
2024/04/11 06:45:36;;;;;;;;;;;;;;;13.83;70.19;99277.38;103668;1279;76287;-39
2024/04/11 06:48:03;;;;;;;;;;;;;;;13.88;70.06;99281.44;107662;1273;67426;-40
2024/04/11 06:50:31;;;;;;;;;;;;;;;13.94;68.72;99282.69;106225;1274;73737;-40
2024/04/11 06:52:59;;;;;;;;;;;;;;;13.96;67.86;99285.09;103902;1274;62005;-39
2024/04/11 06:55:26;;;;;;;;;;;;;;;14.00;67.67;99289.87;104741;1273;62197;-41
2024/04/11 06:57:53;;;;;;;;;;;;;;;14.05;67.37;99291.17;104004;1278;76259;-38
2024/04/11 07:00:26;;;;;;;;;;;;;;;14.13;66.43;99294.02;103997;1278;68855;-37
2024/04/11 07:02:54;;;;;;;;;;;;;;;14.19;65.34;99297.15;103916;1274;72392;-38
2024/04/11 07:05:22;;;;;;;;;;;;;;;14.25;65.28;99301.89;104016;1276;62083;-39
2024/04/11 07:07:54;;;;;;;;;;;;;;;14.33;64.85;99302.83;104031;1274;62197;-39
2024/04/11 07:10:24;;;;;;;;;;;;;;;14.41;64.60;99300.49;103941;1274;74619;-40
2024/04/11 07:12:53;;;;;;;;;;;;;;;14.44;64.01;99297.34;103941;1276;66826;-40
2024/04/11 07:15:23;;;;;;;;;;;;;;;14.41;64.00;99301.52;103848;1274;71864;-40
2024/04/11 07:18:29;;;;;;;;;;;;;;;14.39;64.04;99299.53;103985;1276;62098;-39
2024/04/11 07:21:02;;;;;;;;;;;;;;;14.35;63.98;99301.04;104184;1273;62069;-39
2024/04/11 07:23:29;;;;;;;;;;;;;;;14.31;64.16;99298.53;107649;1274;75713;-38
2024/04/11 07:25:56;;;;;;;;;;;;;;;14.31;64.67;99297.02;104218;1279;64549;-41
2024/04/11 07:28:24;;;;;;;;;;;;;;;14.34;64.93;99302.02;105696;1276;72710;-40
2024/04/11 07:30:51;;;;;;;;;;;;;;;14.38;64.61;99296.52;104053;1279;62111;-39
2024/04/11 07:33:18;;;;;;;;;;;;;;;14.39;64.28;99296.51;103942;1274;62085;-39
2024/04/11 07:35:45;;;;;;;;;;;;;;;14.38;64.39;99296.80;103872;1274;75314;-41
2024/04/11 07:38:13;;;;;;;;;;;;;;;14.40;64.53;99305.14;103869;1277;66266;-39
2024/04/11 07:40:54;;;;;;;;;;;;;;;14.48;64.55;99302.42;103972;1274;72472;-37
2024/04/11 07:43:24;;;;;;;;;;;;;;;14.57;63.87;99307.09;103991;1277;62165;-39
2024/04/11 07:45:52;;;;;;;;;;;;;;;14.59;63.71;99309.96;104017;1274;62117;-35
2024/04/11 07:48:23;;;;;;;;;;;;;;;14.62;63.67;99307.61;105770;1274;75374;-39
2024/04/11 07:50:50;;;;;;;;;;;;;;;14.69;63.13;99312.14;103898;1274;65217;-38
2024/04/11 07:53:18;;;;;;;;;;;;;;;14.76;63.28;99310.92;103839;1274;72726;-39
2024/04/11 07:55:46;;;;;;;;;;;;;;;14.86;62.92;99312.34;103980;1274;62098;-39
2024/04/11 07:58:18;;;;;;;;;;;;;;;14.92;62.44;99309.42;103934;1274;62173;-41
2024/04/11 08:00:49;;;;;;;;;;;;;;;14.92;62.64;99315.02;107707;1272;76177;-48
2024/04/11 08:03:17;;;;;;;;;;;;;;;14.99;62.79;99317.65;105381;1273;64956;-43
2024/04/11 08:05:44;;;;;;;;;;;;;;;15.06;62.82;99321.72;104046;1273;73172;-41
2024/04/11 08:08:12;;;;;;;;;;;;;;;15.11;62.22;99326.63;104339;1274;62149;-40
2024/04/11 08:10:39;;;;;;;;;;;;;;;15.08;61.71;99328.89;104040;1277;62194;-40
2024/04/11 08:13:08;;;;;;;;;;;;;;;15.03;61.73;99325.48;104004;1277;76566;-39
2024/04/11 08:15:35;;;;;;;;;;;;;;;15.00;61.50;99329.98;104012;1279;65935;-43
2024/04/11 08:18:03;;;;;;;;;;;;;;;14.98;61.05;99334.02;103900;1274;72659;-43
2024/04/11 08:20:30;;;;;;;;;;;;;;;14.94;60.92;99337.51;104089;1278;62127;-43
2024/04/11 08:23:01;;;;;;;;;;;;;;;15.01;60.53;99338.67;104132;1274;62112;-40
2024/04/11 08:25:38;;;;;;;;;;;;;;;15.06;59.90;99338.30;104071;1274;75392;-54
2024/04/11 08:28:05;;;;;;;;;;;;;;;15.11;59.60;99337.42;103987;1276;65260;-51
2024/04/11 08:30:35;;;;;;;;;;;;;;;15.14;58.86;99340.27;104067;1274;72772;-44
2024/04/11 08:33:09;;;;;;;;;;;;;;;15.13;59.08;99341.95;104069;1274;62059;-41
2024/04/11 08:35:37;;;;;;;;;;;;;;;15.14;59.30;99344.75;105796;1274;61265;-39
2024/04/11 08:38:06;;;;;;;;;;;;;;;15.15;58.96;99350.45;104430;1273;76501;-41
2024/04/11 08:40:34;;;;;;;;;;;;;;;15.13;59.60;99351.80;104132;1279;64701;-40
2024/04/11 08:43:04;;;;;;;;;;;;;;;15.21;60.16;99351.03;103885;1274;73448;-39
2024/04/11 08:45:33;;;;;;;;;;;;;;;15.31;60.57;99348.59;107027;1274;60601;-37
2024/04/11 08:48:01;;;;;;;;;;;;;;;15.40;60.56;99348.30;104150;1274;62133;-38
2024/04/11 08:50:30;;;;;;;;;;;;;;;15.49;60.72;99351.59;104157;1279;75406;-39
2024/04/11 08:53:05;;;;;;;;;;;;;;;15.58;61.21;99345.21;104007;1282;68481;-37
2024/04/11 08:55:40;;;;;;;;;;;;;;;15.73;61.32;99352.08;103807;1281;72987;-38
2024/04/11 08:58:08;;;;;;;;;;;;;;;15.84;60.93;99349.22;104097;1274;62055;-40
2024/04/11 09:00:44;;;;;;;;;;;;;;;15.90;60.58;99351.20;104157;1273;62232;-39
2024/04/11 09:03:12;;;;;;;;;;;;;;;15.94;60.34;99356.05;103975;1275;76867;-39
2024/04/11 09:05:39;;;;;;;;;;;;;;;15.99;59.78;99353.93;104179;1276;66186;-38
2024/04/11 09:08:06;;;;;;;;;;;;;;;16.01;58.91;99358.65;104070;1274;73200;-45
2024/04/11 09:10:33;;;;;;;;;;;;;;;16.02;58.04;99364.21;104012;1274;62116;-38
2024/04/11 09:13:00;;;;;;;;;;;;;;;15.94;57.42;99365.04;103998;1274;62097;-35
2024/04/11 09:15:28;;;;;;;;;;;;;;;15.87;57.67;99364.31;104076;1276;75938;-37
2024/04/11 09:17:56;;;;;;;;;;;;;;;15.88;57.65;99368.78;104213;1276;64753;-38
2024/04/11 09:20:24;;;;;;;;;;;;;;;15.94;57.76;99358.76;103909;1274;73327;-38
2024/04/11 09:22:55;;;;;;;;;;;;;;;15.99;57.75;99360.09;104269;1279;62111;-37
2024/04/11 09:25:27;;;;;;;;;;;;;;;16.03;57.49;99366.84;104214;1279;62192;-35
2024/04/11 09:28:00;;;;;;;;;;;;;;;16.07;57.61;99365.11;103837;1279;73748;-37
2024/04/11 09:30:30;;;;;;;;;;;;;;;16.16;57.67;99366.86;104330;1276;66716;-34
2024/04/11 09:33:04;;;;;;;;;;;;;;;16.22;57.46;99371.53;103891;1274;73614;-38
2024/04/11 09:35:35;;;;;;;;;;;;;;;16.20;56.73;99374.80;105016;1276;62155;-35
2024/04/11 09:38:02;;;;;;;;;;;;;;;16.09;56.82;99372.10;103886;1274;62292;-36
2024/04/11 09:40:34;;;;;;;;;;;;;;;16.04;57.23;99369.91;103979;1273;76314;-43
2024/04/11 09:43:04;;;;;;;;;;;;;;;16.05;56.87;99374.97;107539;1274;64103;-37
2024/04/11 09:45:37;;;;;;;;;;;;;;;16.06;57.30;99378.67;104249;1276;72850;-38
2024/04/11 09:48:04;;;;;;;;;;;;;;;16.13;56.79;99382.25;107711;1274;59863;-38
2024/04/11 09:50:36;;;;;;;;;;;;;;;16.22;56.91;99380.01;106883;1274;62100;-41
2024/04/11 09:53:03;;;;;;;;;;;;;;;16.35;56.37;99375.97;104078;1279;75520;-38
2024/04/11 09:55:33;;;;;;;;;;;;;;;16.49;56.19;99372.90;103736;1274;67486;-38
2024/04/11 09:58:00;;;;;;;;;;;;;;;16.62;55.79;99376.27;103816;1274;74079;-38
2024/04/11 10:00:48;;;;;;;;;;;;;;;16.73;55.08;99379.83;103790;1274;62134;-37
2024/04/11 10:03:18;;;;;;;;;;;;;;;16.73;54.30;99375.70;103953;1276;62123;-38
2024/04/11 10:05:51;;;;;;;;;;;;;;;16.68;54.27;99367.52;103852;1279;75232;-38
2024/04/11 10:08:27;;;;;;;;;;;;;;;16.71;54.41;99366.83;104117;1273;67379;-40
2024/04/11 10:10:58;;;;;;;;;;;;;;;16.80;53.88;99369.36;104261;1274;72655;-38
2024/04/11 10:13:25;;;;;;;;;;;;;;;16.88;53.56;99370.46;103783;1277;62040;-35
2024/04/11 10:16:14;;;;;;;;;;;;;;;16.96;53.35;99370.70;104085;1274;62138;-39
2024/04/11 10:18:45;;;;;;;;;;;;;;;16.96;52.67;99368.69;103861;1276;75435;-40
2024/04/11 10:21:23;;;;;;;;;;;;;;;16.95;52.88;99365.55;104041;1277;67307;-37
2024/04/11 10:24:14;;;;;;;;;;;;;;;17.04;53.20;99359.19;103894;1274;73699;-38
2024/04/11 10:26:45;;;;;;;;;;;;;;;17.17;52.41;99360.62;103863;1276;61990;-36
2024/04/11 10:29:18;;;;;;;;;;;;;;;17.23;51.89;99365.98;104101;1276;62146;-38
2024/04/11 10:31:47;;;;;;;;;;;;;;;17.26;51.81;99362.98;104191;1276;75396;-37
2024/04/11 10:34:19;;;;;;;;;;;;;;;17.30;51.57;99364.59;103851;1274;66510;-42
2024/04/11 10:36:54;;;;;;;;;;;;;;;17.34;51.70;99361.21;104215;1274;72419;-40
2024/04/11 10:39:23;;;;;;;;;;;;;;;17.41;51.50;99365.08;103986;1283;62095;-38
2024/04/11 10:41:51;;;;;;;;;;;;;;;17.46;50.96;99368.86;103967;1274;62055;-37
2024/04/11 10:44:23;;;;;;;;;;;;;;;17.49;51.44;99363.23;103947;1279;76410;-39
2024/04/11 10:46:51;;;;;;;;;;;;;;;17.59;51.37;99359.89;103743;1279;66701;-37
2024/04/11 10:49:28;;;;;;;;;;;;;;;17.78;51.17;99353.90;103793;1274;72729;-37
2024/04/11 10:51:58;;;;;;;;;;;;;;;18.00;50.18;99360.16;107481;1273;62199;-37
2024/04/11 10:54:26;;;;;;;;;;;;;;;18.17;49.55;99359.16;107681;1273;59806;-38
2024/04/11 10:56:54;;;;;;;;;;;;;;;18.37;49.26;99355.03;103757;1273;74074;-39
2024/04/11 10:59:27;;;;;;;;;;;;;;;18.62;48.84;99356.97;104160;1278;66706;-37
2024/04/11 11:02:02;;;;;;;;;;;;;;;18.98;48.63;99356.40;104350;1274;71584;-36
2024/04/11 11:04:33;;;;;;;;;;;;;;;19.48;47.79;99348.80;103925;1274;62091;-38
2024/04/11 11:07:09;;;;;;;;;;;;;;;19.98;46.62;99344.27;104265;1283;62167;-35
2024/04/11 11:09:42;;;;;;;;;;;;;;;20.46;46.53;99340.77;103923;1279;75559;-37
2024/04/11 11:12:11;;;;;;;;;;;;;;;20.97;45.20;99342.80;104426;1274;66395;-39
2024/04/11 11:14:40;;;;;;;;;;;;;;;21.32;43.80;99340.55;103903;1274;72580;-36
2024/04/11 11:17:16;;;;;;;;;;;;;;;21.54;43.34;99340.02;104107;1276;62059;-37
2024/04/11 11:19:44;;;;;;;;;;;;;;;21.78;42.27;99336.63;104587;1279;253781;-37
2024/04/11 11:22:14;;;;;;;;;;;;;;;21.92;42.14;99334.61;104083;1280;74616;-38
2024/04/11 11:24:42;;;;;;;;;;;;;;;21.96;41.92;99334.84;104467;1279;64823;-37
2024/04/11 11:27:11;;;;;;;;;;;;;;;21.92;41.67;99334.61;104112;1276;72649;-40
2024/04/11 11:29:42;;;;;;;;;;;;;;;21.92;41.85;99334.90;104208;1277;62103;-38
2024/04/11 11:32:18;;;;;;;;;;;;;;;22.05;42.06;99331.81;103828;1274;62152;-38
2024/04/11 11:34:47;;;;;;;;;;;;;;;22.25;41.27;99332.64;104381;1280;75501;-38
2024/04/11 11:37:14;;;;;;;;;;;;;;;22.42;41.20;99332.39;103910;1274;66707;-37
2024/04/11 11:39:49;;;;;;;;;;;;;;;22.64;40.63;99330.40;103733;1274;72865;-37
2024/04/11 11:42:26;;;;;;;;;;;;;;;22.85;40.46;99329.94;104204;1278;62203;-35
2024/04/11 11:47:33;;;;;;;;;;;;;;;23.68;38.99;99321.52;104258;1275;76375;-38
2024/04/11 11:50:16;;;;;;;;;;;;;;;24.00;38.74;99325.61;104167;1279;64207;-37
2024/04/11 11:52:44;;;;;;;;;;;;;;;24.34;37.39;99326.64;104407;1276;71510;-38
2024/04/11 11:55:16;;;;;;;;;;;;;;;24.26;37.05;99324.94;104269;1276;62126;-36
2024/04/11 11:57:47;;;;;;;;;;;;;;;24.30;37.45;99323.39;105455;1276;62118;-37
2024/04/11 12:00:21;;;;;;;;;;;;;;;24.57;36.93;99324.36;104144;1276;75434;-38
2024/04/11 12:02:51;;;;;;;;;;;;;;;24.83;36.89;99318.66;104276;1279;68077;-38
2024/04/11 12:05:23;;;;;;;;;;;;;;;25.17;36.09;99322.51;103823;1279;71428;-40
2024/04/11 12:07:52;;;;;;;;;;;;;;;25.37;35.29;99319.00;103980;1280;62139;-37
2024/04/11 12:10:29;;;;;;;;;;;;;;;25.36;34.80;99328.30;104002;1279;62174;-38
2024/04/11 12:13:10;;;;;;;;;;;;;;;25.20;34.85;99326.65;103852;1276;74917;-35
2024/04/11 12:15:37;;;;;;;;;;;;;;;25.10;35.00;99325.77;104069;1274;67268;-37
2024/04/11 12:18:11;;;;;;;;;;;;;;;25.22;35.07;99319.73;103816;1274;72482;-37
2024/04/11 12:20:39;;;;;;;;;;;;;;;25.35;34.84;99316.13;103925;1279;62098;-37
2024/04/11 12:23:07;;;;;;;;;;;;;;;25.48;34.79;99309.59;104446;1277;62117;-38
2024/04/11 12:25:35;;;;;;;;;;;;;;;25.73;34.44;99311.09;104121;1279;76540;-36
2024/04/11 12:28:09;;;;;;;;;;;;;;;25.88;33.99;99305.05;103812;1280;66081;-37
2024/04/11 12:30:36;;;;;;;;;;;;;;;25.96;33.82;99294.79;104133;1274;72416;-36
2024/04/11 12:33:10;;;;;;;;;;;;;;;26.08;33.93;99292.48;107135;1273;59849;-39
2024/04/11 12:35:54;;;;;;;;;;;;;;;26.28;33.56;99294.16;104058;1276;62110;-36
2024/04/11 12:38:24;;;;;;;;;;;;;;;26.55;32.83;99293.73;103924;1277;76509;-40
2024/04/11 12:40:51;;;;;;;;;;;;;;;26.77;32.49;99289.61;104259;1279;66191;-37
2024/04/11 12:43:19;;;;;;;;;;;;;;;26.89;31.97;99287.87;104363;1274;71551;-37
2024/04/11 12:45:54;;;;;;;;;;;;;;;26.74;31.96;99287.98;103753;1276;62063;-37
2024/04/11 12:48:23;;;;;;;;;;;;;;;26.55;32.95;99282.42;103854;1279;62139;-35
2024/04/11 12:50:55;;;;;;;;;;;;;;;26.66;32.41;99286.02;104257;1274;76333;-36